Time;durP1;ratioP1;P1;durP2;ratioP2;P2;SDS_P1;SDS_P2;PMS_P1;PMS_P2;Temp;Humidity;BMP_temperature;BMP_pressure;BME280_temperature;BME280_humidity;BME280_pressure;Samples;Min_cycle;Max_cycle;Signal;HPM_P1;HPM_P2
2023/01/08 00:00:52;;;;;;;8.10;4.43;;;9.70;99.90;;;;;;5034702;28;20080;-68
2023/01/08 00:03:17;;;;;;;5.72;4.00;;;9.70;99.90;;;;;;5034647;28;20025;-68
2023/01/08 00:05:43;;;;;;;10.07;4.78;;;9.80;99.90;;;;;;5033429;28;20477;-68
2023/01/08 00:08:09;;;;;;;9.02;4.57;;;9.80;99.90;;;;;;5034649;28;20044;-69
2023/01/08 00:10:38;;;;;;;10.20;4.40;;;9.80;99.90;;;;;;5034387;28;20476;-69
2023/01/08 00:13:05;;;;;;;5.97;4.18;;;9.80;99.90;;;;;;5034474;28;20032;-69
2023/01/08 00:15:32;;;;;;;8.73;4.82;;;9.70;99.90;;;;;;5034519;28;20037;-69
2023/01/08 00:17:57;;;;;;;9.00;4.97;;;9.70;99.90;;;;;;5033021;28;20477;-69
2023/01/08 00:20:23;;;;;;;7.97;4.32;;;9.70;99.90;;;;;;5034218;28;20030;-69
2023/01/08 00:22:49;;;;;;;9.00;5.18;;;9.70;99.90;;;;;;5034430;28;20100;-68
2023/01/08 00:25:16;;;;;;;7.55;4.85;;;9.70;99.90;;;;;;5033013;28;20017;-68
2023/01/08 00:27:41;;;;;;;7.68;5.22;;;9.50;99.90;;;;;;5034507;28;20055;-69
2023/01/08 00:30:07;;;;;;;9.15;4.50;;;9.40;99.90;;;;;;5033670;28;20532;-68
2023/01/08 00:32:33;;;;;;;9.13;5.40;;;9.40;99.90;;;;;;5034312;28;20091;-68
2023/01/08 00:35:00;;;;;;;9.25;5.15;;;9.40;99.90;;;;;;5032782;28;20473;-69
2023/01/08 00:37:26;;;;;;;10.68;5.72;;;9.40;99.90;;;;;;5032671;28;20027;-69
2023/01/08 00:39:51;;;;;;;12.20;5.28;;;9.50;99.90;;;;;;5032586;28;20029;-68
2023/01/08 00:42:17;;;;;;;12.75;5.43;;;9.50;99.90;;;;;;5033445;28;20033;-68
2023/01/08 00:44:43;;;;;;;8.20;4.80;;;9.60;99.90;;;;;;5033916;28;20022;-69
2023/01/08 00:47:08;;;;;;;9.23;5.38;;;9.50;99.90;;;;;;5034148;28;20072;-69
2023/01/08 00:49:34;;;;;;;7.38;4.60;;;9.30;99.90;;;;;;5032529;28;20068;-69
2023/01/08 00:51:59;;;;;;;8.80;5.13;;;9.30;99.90;;;;;;5032404;28;20141;-68
2023/01/08 00:54:25;;;;;;;7.78;5.15;;;9.40;99.90;;;;;;5032473;28;20026;-68
2023/01/08 00:56:50;;;;;;;9.32;5.53;;;9.30;99.90;;;;;;5032320;28;20036;-68
2023/01/08 00:59:16;;;;;;;9.32;5.13;;;9.20;99.90;;;;;;5032670;28;20017;-68
2023/01/08 01:01:41;;;;;;;10.65;5.68;;;9.20;99.90;;;;;;5032232;28;20033;-68
2023/01/08 01:04:07;;;;;;;9.52;5.10;;;9.20;99.90;;;;;;5032234;28;20024;-68
2023/01/08 01:06:32;;;;;;;8.43;4.93;;;9.30;99.90;;;;;;5032519;28;20064;-68
2023/01/08 01:08:58;;;;;;;8.13;4.75;;;9.30;99.90;;;;;;5032197;28;20095;-68
2023/01/08 01:11:26;;;;;;;8.57;5.05;;;9.50;99.90;;;;;;5033390;28;20034;-68
2023/01/08 01:13:54;;;;;;;8.07;4.60;;;9.50;99.90;;;;;;5033413;28;20030;-68
2023/01/08 01:16:20;;;;;;;8.65;4.68;;;9.60;99.90;;;;;;5032932;28;20040;-68
2023/01/08 01:18:45;;;;;;;9.77;5.25;;;9.70;99.90;;;;;;5032122;28;20021;-68
2023/01/08 01:21:29;;;;;;;8.38;4.82;;;9.70;99.90;;;;;;5032390;28;20029;-68
2023/01/08 01:23:57;;;;;;;7.18;4.45;;;9.70;99.90;;;;;;5033398;28;20021;-68
2023/01/08 01:26:24;;;;;;;9.80;4.60;;;9.70;99.90;;;;;;5032108;28;20022;-68
2023/01/08 01:28:51;;;;;;;7.15;4.07;;;9.80;99.90;;;;;;5032029;28;20021;-68
2023/01/08 01:31:18;;;;;;;9.90;4.30;;;9.80;99.90;;;;;;5033229;28;20030;-68
2023/01/08 01:33:44;;;;;;;6.88;4.28;;;9.80;99.90;;;;;;5033082;28;20026;-68
2023/01/08 01:36:14;;;;;;;7.97;4.20;;;9.80;99.90;;;;;;5033080;28;20045;-68
2023/01/08 01:38:47;;;;;;;9.77;4.70;;;9.80;99.90;;;;;;5033698;28;20040;-68
2023/01/08 01:41:35;;;;;;;8.82;4.47;;;9.80;99.90;;;;;;5033385;28;20049;-68
2023/01/08 01:44:36;;;;;;;6.32;3.75;;;9.80;99.90;;;;;;5032295;28;20025;-68
2023/01/08 01:47:06;;;;;;;6.38;3.50;;;9.90;99.90;;;;;;5031804;28;20198;-68
2023/01/08 01:49:32;;;;;;;6.93;3.80;;;10.00;99.90;;;;;;5031778;28;20057;-68
2023/01/08 01:52:03;;;;;;;6.07;3.40;;;10.10;99.90;;;;;;5031662;28;20036;-68
2023/01/08 01:54:30;;;;;;;6.63;3.15;;;10.10;99.90;;;;;;5033951;28;20064;-68
2023/01/08 01:56:57;;;;;;;6.10;3.38;;;10.20;99.90;;;;;;5035692;28;20026;-68
2023/01/08 01:59:22;;;;;;;6.22;3.08;;;10.10;99.90;;;;;;5035766;28;20044;-68
2023/01/08 02:01:48;;;;;;;6.63;3.35;;;10.20;99.90;;;;;;5035696;28;20022;-68
2023/01/08 02:04:14;;;;;;;6.00;3.08;;;10.10;99.90;;;;;;5035678;28;20018;-68
2023/01/08 02:07:04;;;;;;;5.75;3.58;;;10.20;99.90;;;;;;5037124;28;20432;-68
2023/01/08 02:09:48;;;;;;;5.85;3.22;;;10.20;99.90;;;;;;5035664;28;20108;-68
2023/01/08 02:12:31;;;;;;;4.85;3.25;;;10.20;99.90;;;;;;5036818;28;20026;-68
2023/01/08 02:15:20;;;;;;;6.32;3.33;;;10.30;99.90;;;;;;5036707;28;20091;-68
2023/01/08 02:18:11;;;;;;;5.35;3.30;;;10.30;99.90;;;;;;5035600;28;20026;-68
2023/01/08 02:20:43;;;;;;;5.43;3.20;;;10.30;99.90;;;;;;5036837;28;20014;-68
2023/01/08 02:23:44;;;;;;;6.75;3.38;;;10.30;99.90;;;;;;5035427;28;20102;-68
2023/01/08 02:26:26;;;;;;;7.63;3.63;;;10.20;99.90;;;;;;5036857;28;20018;-68
2023/01/08 02:29:08;;;;;;;6.20;3.10;;;10.30;99.90;;;;;;5035290;28;20033;-68
2023/01/08 02:31:37;;;;;;;7.00;3.67;;;10.30;99.90;;;;;;5036386;28;20100;-68
2023/01/08 02:34:02;;;;;;;5.95;3.05;;;10.40;99.90;;;;;;5036395;28;20060;-68
2023/01/08 02:36:36;;;;;;;5.15;3.33;;;10.40;99.90;;;;;;5036607;28;20030;-68
2023/01/08 02:39:11;;;;;;;6.15;3.60;;;10.40;99.90;;;;;;5034871;28;20113;-68
2023/01/08 02:41:50;;;;;;;6.25;4.25;;;10.40;99.90;;;;;;5036751;28;20108;-69
2023/01/08 02:44:27;;;;;;;5.88;3.33;;;10.40;99.90;;;;;;5036796;28;20483;-69
2023/01/08 02:46:56;;;;;;;6.13;3.47;;;10.40;99.90;;;;;;5034955;28;20067;-69
2023/01/08 02:49:27;;;;;;;8.82;4.00;;;10.30;99.90;;;;;;5034902;28;20036;-69
2023/01/08 02:51:55;;;;;;;4.25;2.88;;;10.40;99.90;;;;;;5036139;28;20033;-69
2023/01/08 02:54:25;;;;;;;7.60;3.80;;;10.30;99.90;;;;;;5034681;28;20440;-69
2023/01/08 02:57:07;;;;;;;8.25;3.65;;;10.20;99.90;;;;;;5036252;28;20021;-69
2023/01/08 02:59:33;;;;;;;5.15;3.25;;;10.20;99.90;;;;;;5035810;28;20057;-69
2023/01/08 03:02:01;;;;;;;6.18;3.58;;;10.20;99.90;;;;;;5034828;28;20412;-68
2023/01/08 03:04:32;;;;;;;5.70;3.28;;;10.20;99.90;;;;;;5035934;28;20017;-68
2023/01/08 03:06:58;;;;;;;6.85;3.70;;;10.30;99.90;;;;;;5035743;28;20025;-68
2023/01/08 03:09:23;;;;;;;7.03;3.10;;;10.20;99.90;;;;;;5034418;28;20053;-68
2023/01/08 03:11:59;;;;;;;4.82;3.22;;;10.10;99.90;;;;;;5034424;28;20026;-68
2023/01/08 03:14:31;;;;;;;10.07;3.88;;;10.10;99.90;;;;;;5034474;28;20028;-68
2023/01/08 03:17:19;;;;;;;8.15;3.90;;;10.10;99.90;;;;;;5034342;28;20029;-67
2023/01/08 03:19:52;;;;;;;6.13;3.50;;;10.00;99.90;;;;;;5035649;28;20064;-67
2023/01/08 03:22:19;;;;;;;5.10;3.70;;;10.00;99.90;;;;;;5034467;28;20025;-68
2023/01/08 03:24:48;;;;;;;6.30;3.58;;;10.10;99.90;;;;;;5034601;28;20113;-68
2023/01/08 03:27:19;;;;;;;6.28;3.47;;;10.00;99.90;;;;;;5034387;28;20116;-68
2023/01/08 03:29:47;;;;;;;5.63;3.25;;;10.10;99.90;;;;;;5035625;28;20080;-68
2023/01/08 03:32:15;;;;;;;6.97;3.67;;;10.00;99.90;;;;;;5034558;28;20034;-67
2023/01/08 03:34:43;;;;;;;8.18;4.00;;;9.90;99.90;;;;;;5034374;28;20083;-67
2023/01/08 03:37:11;;;;;;;7.20;4.60;;;9.70;99.90;;;;;;5035218;28;20021;-67
2023/01/08 03:39:42;;;;;;;5.57;3.60;;;9.70;99.90;;;;;;5033986;28;20021;-68
2023/01/08 03:42:11;;;;;;;9.93;4.40;;;9.60;99.90;;;;;;5034326;28;20049;-67
2023/01/08 03:44:37;;;;;;;6.63;4.03;;;9.60;99.90;;;;;;5034009;28;20108;-67
2023/01/08 03:47:03;;;;;;;6.55;4.18;;;9.60;99.90;;;;;;5034357;28;20075;-67
2023/01/08 03:49:30;;;;;;;8.90;4.20;;;9.60;99.90;;;;;;5034645;28;20026;-67
2023/01/08 03:51:55;;;;;;;8.40;4.07;;;9.60;99.90;;;;;;5033771;28;20044;-67
2023/01/08 03:54:29;;;;;;;8.40;4.22;;;9.50;99.90;;;;;;5033625;28;20021;-67
2023/01/08 03:56:54;;;;;;;9.07;4.70;;;9.50;99.90;;;;;;5034745;28;20033;-67
2023/01/08 03:59:20;;;;;;;7.55;4.43;;;9.40;99.90;;;;;;5034786;28;20018;-67
2023/01/08 04:01:46;;;;;;;8.80;5.18;;;9.50;99.90;;;;;;5033746;28;20035;-67
2023/01/08 04:04:11;;;;;;;7.40;4.47;;;9.40;99.90;;;;;;5033457;28;20032;-67
2023/01/08 04:06:37;;;;;;;10.38;5.35;;;9.30;99.90;;;;;;5033791;28;20033;-67
2023/01/08 04:09:02;;;;;;;9.70;5.05;;;9.40;99.90;;;;;;5034100;28;20022;-67
2023/01/08 04:11:28;;;;;;;10.50;5.10;;;9.40;99.90;;;;;;5033253;28;20032;-67
2023/01/08 04:13:54;;;;;;;7.72;4.85;;;9.30;99.90;;;;;;5034645;28;20061;-67
2023/01/08 04:16:20;;;;;;;7.82;4.82;;;9.40;99.90;;;;;;5033225;28;20452;-67
2023/01/08 04:18:45;;;;;;;10.07;5.22;;;9.50;99.90;;;;;;5033938;28;20053;-67
2023/01/08 04:21:11;;;;;;;10.43;5.75;;;9.60;99.90;;;;;;5033324;28;20060;-67
2023/01/08 04:23:36;;;;;;;8.88;5.47;;;9.60;99.90;;;;;;5033160;28;20017;-68
2023/01/08 04:26:07;;;;;;;10.85;6.05;;;9.50;99.90;;;;;;5034341;28;20064;-67
2023/01/08 04:28:32;;;;;;;9.13;5.53;;;9.30;99.90;;;;;;5034306;28;20108;-67
2023/01/08 04:30:58;;;;;;;13.85;6.40;;;9.40;99.90;;;;;;5033169;28;20067;-67
2023/01/08 04:33:24;;;;;;;11.82;6.22;;;9.30;99.90;;;;;;5034253;28;20022;-67
2023/01/08 04:35:50;;;;;;;15.20;6.38;;;9.30;99.90;;;;;;5034326;28;20021;-67
2023/01/08 04:38:15;;;;;;;10.43;5.82;;;9.40;99.90;;;;;;5032822;28;20037;-67
2023/01/08 04:40:41;;;;;;;10.82;5.90;;;9.30;99.90;;;;;;5032640;28;20035;-67
2023/01/08 04:43:06;;;;;;;13.00;6.45;;;9.30;99.90;;;;;;5033553;28;20025;-67
2023/01/08 04:45:33;;;;;;;11.15;6.40;;;9.40;99.90;;;;;;5032684;28;20029;-67
2023/01/08 04:47:59;;;;;;;9.77;6.50;;;9.40;99.90;;;;;;5032542;28;20093;-67
2023/01/08 04:50:26;;;;;;;10.88;6.20;;;9.50;99.90;;;;;;5034057;28;20109;-67
2023/01/08 04:52:52;;;;;;;14.18;6.28;;;9.50;99.90;;;;;;5032571;28;20029;-67
2023/01/08 04:55:18;;;;;;;10.65;5.97;;;9.50;99.90;;;;;;5032520;28;20026;-67
2023/01/08 04:57:44;;;;;;;14.20;6.68;;;9.50;99.90;;;;;;5032446;28;20025;-67
2023/01/08 05:00:10;;;;;;;12.63;6.93;;;9.40;99.90;;;;;;5032423;28;20044;-67
2023/01/08 05:02:35;;;;;;;11.85;6.57;;;9.40;99.90;;;;;;5034179;28;20028;-67
2023/01/08 05:05:01;;;;;;;12.07;7.15;;;9.40;99.90;;;;;;5032426;28;20022;-67
2023/01/08 05:07:26;;;;;;;11.57;6.57;;;9.30;99.90;;;;;;5032289;28;20155;-67
2023/01/08 05:09:52;;;;;;;10.73;6.68;;;9.30;99.90;;;;;;5033438;28;20075;-67
2023/01/08 05:12:18;;;;;;;14.45;7.50;;;9.40;99.90;;;;;;5033888;28;20033;-67
2023/01/08 05:14:43;;;;;;;11.45;6.60;;;9.40;99.90;;;;;;5032140;28;20076;-67
2023/01/08 05:17:09;;;;;;;13.85;7.72;;;9.30;99.90;;;;;;5032090;28;20029;-67
2023/01/08 05:19:35;;;;;;;10.02;5.90;;;9.20;99.90;;;;;;5032383;28;20029;-67
2023/01/08 05:22:00;;;;;;;12.27;7.00;;;9.20;99.90;;;;;;5032309;28;20032;-67
2023/01/08 05:24:26;;;;;;;17.60;8.25;;;9.30;99.90;;;;;;5032170;28;20109;-67
2023/01/08 05:26:51;;;;;;;14.65;6.93;;;9.30;99.90;;;;;;5032022;28;20030;-67
2023/01/08 05:29:17;;;;;;;14.02;7.28;;;9.30;99.90;;;;;;5033999;28;20032;-67
2023/01/08 05:31:44;;;;;;;12.35;6.63;;;9.30;99.90;;;;;;5031911;28;20029;-67
2023/01/08 05:34:09;;;;;;;11.30;7.00;;;9.40;99.90;;;;;;5033490;28;20148;-67
2023/01/08 05:36:35;;;;;;;13.05;7.07;;;9.30;99.90;;;;;;5031839;28;20037;-67
2023/01/08 05:39:00;;;;;;;13.65;6.88;;;9.30;99.90;;;;;;5031875;28;20025;-67
2023/01/08 05:41:26;;;;;;;16.92;8.63;;;9.30;99.90;;;;;;5055232;22;20034;-65
2023/01/08 05:43:51;;;;;;;15.63;7.85;;;9.30;99.90;;;;;;5048595;28;20104;-64
2023/01/08 05:46:17;;;;;;;17.10;8.15;;;9.20;99.90;;;;;;5032003;28;20018;-64
2023/01/08 05:48:42;;;;;;;17.05;8.05;;;9.10;99.90;;;;;;5048496;28;20025;-64
2023/01/08 05:51:08;;;;;;;17.38;8.85;;;9.10;99.90;;;;;;5031602;28;20029;-64
2023/01/08 05:53:33;;;;;;;24.63;10.45;;;9.00;99.90;;;;;;5032148;28;20029;-64
2023/01/08 05:56:01;;;;;;;21.10;10.13;;;9.10;99.90;;;;;;5031876;28;20017;-64
2023/01/08 05:58:27;;;;;;;21.23;8.98;;;9.10;99.90;;;;;;5031877;28;20033;-64
2023/01/08 06:00:52;;;;;;;14.30;8.10;;;9.10;99.90;;;;;;5032758;28;20044;-64
2023/01/08 06:03:22;;;;;;;16.92;8.95;;;9.10;99.90;;;;;;5031504;28;20065;-64
2023/01/08 06:05:47;;;;;;;16.45;8.48;;;9.10;99.90;;;;;;5031532;28;20030;-64
2023/01/08 06:08:13;;;;;;;16.70;8.75;;;9.10;99.90;;;;;;5031459;28;20115;-64
2023/01/08 06:10:39;;;;;;;16.65;7.55;;;9.00;99.90;;;;;;5031600;28;20025;-64
2023/01/08 06:13:09;;;;;;;13.55;7.53;;;9.10;99.90;;;;;;5032790;28;20030;-64
2023/01/08 06:15:35;;;;;;;14.25;8.02;;;9.10;99.90;;;;;;5033018;28;20021;-64
2023/01/08 06:18:02;;;;;;;13.13;7.13;;;9.00;99.90;;;;;;5031315;28;20484;-65
2023/01/08 06:20:28;;;;;;;13.00;6.93;;;9.10;99.90;;;;;;5031467;28;20024;-65
2023/01/08 06:22:53;;;;;;;17.40;8.00;;;9.10;99.90;;;;;;5031306;28;20396;-65
2023/01/08 06:25:19;;;;;;;20.08;8.95;;;9.00;99.90;;;;;;5032772;28;20396;-65
2023/01/08 06:27:52;;;;;;;18.27;8.13;;;9.00;99.90;;;;;;5032605;28;20026;-65
2023/01/08 06:30:17;;;;;;;14.13;7.65;;;9.00;99.90;;;;;;5033130;28;20037;-65
2023/01/08 06:32:43;;;;;;;16.23;8.02;;;9.10;99.90;;;;;;5031262;28;20022;-65
2023/01/08 06:35:09;;;;;;;14.45;7.38;;;9.10;99.90;;;;;;5032753;28;20033;-65
2023/01/08 06:37:34;;;;;;;13.77;7.57;;;9.10;99.90;;;;;;5031979;28;20032;-65
2023/01/08 06:40:00;;;;;;;11.90;6.93;;;9.10;99.90;;;;;;5032667;28;20029;-65
2023/01/08 06:42:25;;;;;;;18.52;8.27;;;9.10;99.90;;;;;;5034817;28;20103;-65
2023/01/08 06:44:51;;;;;;;11.23;6.45;;;9.10;99.90;;;;;;5035980;28;20056;-65
2023/01/08 06:47:16;;;;;;;13.18;6.88;;;9.10;99.90;;;;;;5035463;28;20065;-65
2023/01/08 06:49:42;;;;;;;11.90;6.22;;;9.10;99.90;;;;;;5035980;28;20022;-65
2023/01/08 06:52:07;;;;;;;14.85;7.47;;;9.10;99.90;;;;;;5034518;28;20067;-65
2023/01/08 06:54:33;;;;;;;13.55;6.82;;;9.00;99.90;;;;;;5035820;28;20021;-65
2023/01/08 06:56:58;;;;;;;13.05;6.22;;;8.90;99.90;;;;;;5034686;28;20036;-65
2023/01/08 06:59:24;;;;;;;9.50;5.70;;;8.90;99.90;;;;;;5036116;28;20037;-65
2023/01/08 07:01:49;;;;;;;10.85;5.65;;;8.90;99.90;;;;;;5034761;28;20116;-65
2023/01/08 07:04:16;;;;;;;9.23;5.82;;;9.00;99.90;;;;;;5034403;28;20025;-65
2023/01/08 07:06:41;;;;;;;7.18;4.60;;;8.90;99.90;;;;;;5034628;28;20025;-65
2023/01/08 07:09:12;;;;;;;11.88;5.32;;;9.00;99.90;;;;;;5035093;28;20025;-65
2023/01/08 07:11:37;;;;;;;11.75;5.68;;;9.00;99.90;;;;;;5035855;28;20413;-65
2023/01/08 07:14:03;;;;;;;14.75;6.05;;;9.00;99.90;;;;;;5035533;28;20036;-65
2023/01/08 07:16:28;;;;;;;9.32;5.45;;;9.00;99.90;;;;;;5035619;28;20041;-66
2023/01/08 07:18:54;;;;;;;11.45;5.43;;;9.00;99.90;;;;;;5035191;28;20071;-66
2023/01/08 07:21:21;;;;;;;7.40;4.88;;;9.00;99.90;;;;;;5034439;28;20489;-67
2023/01/08 07:23:50;;;;;;;9.25;5.28;;;9.10;99.90;;;;;;5035387;28;20022;-67
2023/01/08 07:26:16;;;;;;;11.30;5.90;;;9.10;99.90;;;;;;5034745;28;20113;-67
2023/01/08 07:28:42;;;;;;;10.20;5.68;;;9.10;99.90;;;;;;5034536;28;20368;-67
2023/01/08 07:31:08;;;;;;;9.68;5.13;;;9.10;99.90;;;;;;5034884;28;20028;-67
2023/01/08 07:33:34;;;;;;;8.27;5.45;;;9.10;99.90;;;;;;5036124;28;20014;-66
2023/01/08 07:36:00;;;;;;;14.75;7.20;;;9.10;99.90;;;;;;5035563;28;20443;-66
2023/01/08 07:38:25;;;;;;;13.57;6.72;;;9.00;99.90;;;;;;5034389;28;20026;-66
2023/01/08 07:40:51;;;;;;;11.60;6.72;;;9.10;99.90;;;;;;5034725;28;20112;-66
2023/01/08 07:43:17;;;;;;;17.38;8.18;;;8.90;99.90;;;;;;5035869;28;20030;-66
2023/01/08 07:45:42;;;;;;;13.27;7.13;;;9.00;99.90;;;;;;5034541;28;20017;-66
2023/01/08 07:48:09;;;;;;;13.05;7.82;;;9.00;99.90;;;;;;5035386;28;20026;-66
2023/01/08 07:50:35;;;;;;;14.23;8.60;;;9.10;99.90;;;;;;5034027;28;20025;-66
2023/01/08 07:53:02;;;;;;;13.52;8.00;;;9.10;99.90;;;;;;5032902;28;20022;-66
2023/01/08 07:55:29;;;;;;;14.00;8.60;;;9.10;99.90;;;;;;5034487;28;20026;-66
2023/01/08 07:57:55;;;;;;;22.05;11.20;;;9.20;99.90;;;;;;5034077;28;20025;-66
2023/01/08 08:00:21;;;;;;;13.23;8.27;;;9.20;99.90;;;;;;5034209;28;20032;-66
2023/01/08 08:02:46;;;;;;;14.38;7.85;;;9.20;99.90;;;;;;5035262;28;20066;-66
2023/01/08 08:05:12;;;;;;;19.58;10.38;;;9.20;99.90;;;;;;5035108;28;20109;-66
2023/01/08 08:07:37;;;;;;;15.38;8.02;;;9.10;99.90;;;;;;5035306;28;20034;-66
2023/01/08 08:10:04;;;;;;;20.42;9.70;;;9.10;99.90;;;;;;5034261;28;20052;-66
2023/01/08 08:12:30;;;;;;;21.08;8.00;;;9.10;99.90;;;;;;5034851;28;20029;-66
2023/01/08 08:14:55;;;;;;;14.65;7.95;;;9.10;99.90;;;;;;5033738;28;20025;-66
2023/01/08 08:17:21;;;;;;;17.25;8.68;;;9.20;99.90;;;;;;5034637;28;20148;-66
2023/01/08 08:19:47;;;;;;;20.67;11.48;;;9.20;99.90;;;;;;5033864;28;20025;-66
2023/01/08 08:22:13;;;;;;;15.50;8.05;;;9.20;99.90;;;;;;5034767;28;20017;-66
2023/01/08 08:24:39;;;;;;;29.63;12.40;;;9.30;99.90;;;;;;5033896;28;20019;-66
2023/01/08 08:27:04;;;;;;;14.32;7.47;;;9.30;99.90;;;;;;5033502;28;20029;-66
2023/01/08 08:29:30;;;;;;;13.32;7.22;;;9.20;99.90;;;;;;5033557;28;20029;-66
2023/01/08 08:31:55;;;;;;;12.43;6.72;;;9.30;99.90;;;;;;5035161;28;20473;-66
2023/01/08 08:34:21;;;;;;;12.75;7.10;;;9.30;99.90;;;;;;5033223;28;20107;-66
2023/01/08 08:36:50;;;;;;;11.05;6.70;;;9.30;99.90;;;;;;5033314;28;20021;-66
2023/01/08 08:39:15;;;;;;;20.35;13.43;;;9.30;99.90;;;;;;5034812;28;20028;-66
2023/01/08 08:41:41;;;;;;;13.75;7.35;;;9.20;99.90;;;;;;5033225;28;20408;-66
2023/01/08 08:44:07;;;;;;;14.80;7.70;;;9.30;99.90;;;;;;5034059;28;20101;-66
2023/01/08 08:46:33;;;;;;;20.60;9.18;;;9.30;99.90;;;;;;5033145;28;20036;-67
2023/01/08 08:48:59;;;;;;;13.88;8.23;;;9.30;99.90;;;;;;5034508;28;20029;-67
2023/01/08 08:51:24;;;;;;;11.80;6.45;;;9.20;99.90;;;;;;5033463;28;20021;-67
2023/01/08 08:53:50;;;;;;;12.80;6.25;;;9.20;99.90;;;;;;5034222;28;20021;-67
2023/01/08 08:56:15;;;;;;;15.68;7.50;;;9.30;99.90;;;;;;5033170;28;20496;-67
2023/01/08 08:58:41;;;;;;;10.90;7.68;;;9.30;99.90;;;;;;5033259;28;20021;-67
2023/01/08 09:01:07;;;;;;;11.05;7.20;;;9.30;99.90;;;;;;5019313;28;20034;-66
2023/01/08 09:03:33;;;;;;;11.25;6.18;;;9.30;99.90;;;;;;5014216;28;20025;-66
2023/01/08 09:05:59;;;;;;;11.52;6.03;;;9.30;99.90;;;;;;5013999;28;20054;-66
2023/01/08 09:08:25;;;;;;;13.05;8.45;;;9.20;99.90;;;;;;5015933;28;20034;-66
2023/01/08 09:10:50;;;;;;;11.05;7.40;;;9.30;99.90;;;;;;5015016;28;20081;-66
2023/01/08 09:13:16;;;;;;;11.75;6.72;;;9.30;99.90;;;;;;5013621;28;20022;-66
2023/01/08 09:15:42;;;;;;;14.15;8.60;;;9.20;99.90;;;;;;5014663;28;20026;-66
2023/01/08 09:18:07;;;;;;;7.80;4.93;;;9.30;99.90;;;;;;5016015;28;20144;-66
2023/01/08 09:20:33;;;;;;;11.63;6.45;;;9.20;99.90;;;;;;5015295;28;20026;-66
2023/01/08 09:22:59;;;;;;;10.77;6.78;;;9.20;99.90;;;;;;5014007;28;20022;-66
2023/01/08 09:25:25;;;;;;;9.35;5.90;;;9.20;99.90;;;;;;5014921;28;20457;-67
2023/01/08 09:28:02;;;;;;;9.52;5.22;;;9.30;99.90;;;;;;5013558;28;20105;-67
2023/01/08 09:30:28;;;;;;;8.23;5.03;;;9.30;99.90;;;;;;5014684;28;20026;-66
2023/01/08 09:33:01;;;;;;;6.60;4.90;;;9.30;99.90;;;;;;5015147;28;20030;-66
2023/01/08 09:35:28;;;;;;;10.18;6.35;;;9.20;99.90;;;;;;5013747;28;20025;-67
2023/01/08 09:37:54;;;;;;;8.23;5.57;;;9.30;99.90;;;;;;5012778;28;20057;-67
2023/01/08 09:40:22;;;;;;;6.97;5.53;;;9.30;99.90;;;;;;5013404;28;20457;-67
2023/01/08 09:42:54;;;;;;;7.18;4.85;;;9.30;99.90;;;;;;5012389;28;20029;-66
2023/01/08 09:45:32;;;;;;;6.35;4.50;;;9.30;99.90;;;;;;5012856;28;20026;-66
2023/01/08 09:48:04;;;;;;;9.32;4.82;;;9.20;99.90;;;;;;5012419;28;20026;-66
2023/01/08 09:50:31;;;;;;;16.23;8.20;;;9.20;99.90;;;;;;5013011;28;20030;-66
2023/01/08 09:52:57;;;;;;;8.13;5.63;;;9.20;99.90;;;;;;5012832;28;20034;-67
2023/01/08 09:55:23;;;;;;;9.63;4.60;;;9.20;99.90;;;;;;5012822;28;20029;-67
2023/01/08 09:57:49;;;;;;;7.38;5.10;;;9.20;99.90;;;;;;5013897;28;20038;-66
2023/01/08 10:00:20;;;;;;;9.45;4.88;;;9.20;99.90;;;;;;5013760;28;20033;-67
2023/01/08 10:02:45;;;;;;;8.73;4.88;;;9.30;99.90;;;;;;5013259;28;20022;-67
2023/01/08 10:05:14;;;;;;;8.75;4.90;;;9.20;99.90;;;;;;5013268;28;20022;-66
2023/01/08 10:07:40;;;;;;;5.05;4.05;;;9.30;99.90;;;;;;5013684;28;20026;-67
2023/01/08 10:10:19;;;;;;;4.55;3.78;;;9.30;99.90;;;;;;5012234;28;20026;-66
2023/01/08 10:12:46;;;;;;;5.47;3.67;;;9.40;99.90;;;;;;5012313;28;20022;-66
2023/01/08 10:15:15;;;;;;;6.07;4.00;;;9.40;99.90;;;;;;5014416;28;20080;-67
2023/01/08 10:17:54;;;;;;;6.18;3.30;;;9.40;99.90;;;;;;5016126;28;20025;-67
2023/01/08 10:20:22;;;;;;;7.22;3.80;;;9.40;99.90;;;;;;5017131;28;20026;-67
2023/01/08 10:22:49;;;;;;;4.53;3.25;;;9.40;99.90;;;;;;5016917;28;20022;-67
2023/01/08 10:25:18;;;;;;;4.18;3.13;;;9.40;99.90;;;;;;5016683;28;20022;-67
2023/01/08 10:27:56;;;;;;;4.78;2.92;;;9.40;99.90;;;;;;5016904;28;20080;-67
2023/01/08 10:30:27;;;;;;;5.32;3.38;;;9.50;99.90;;;;;;5015893;28;20025;-67
2023/01/08 10:32:55;;;;;;;7.43;2.67;;;9.50;99.90;;;;;;5017914;28;20496;-67
2023/01/08 10:35:30;;;;;;;6.78;3.78;;;9.50;99.90;;;;;;5015530;28;20044;-67
2023/01/08 10:37:55;;;;;;;5.90;3.67;;;9.50;99.90;;;;;;5017032;28;20061;-67
2023/01/08 10:40:28;;;;;;;7.13;3.03;;;9.50;99.90;;;;;;5016030;28;20050;-67
2023/01/08 10:43:03;;;;;;;5.13;3.05;;;9.50;99.90;;;;;;5018675;28;20056;-66
2023/01/08 10:45:29;;;;;;;3.83;2.47;;;9.50;99.90;;;;;;5017260;28;20057;-66
2023/01/08 10:47:59;;;;;;;4.55;3.38;;;9.50;99.90;;;;;;5015849;28;20022;-66
2023/01/08 10:50:28;;;;;;;6.55;3.30;;;9.50;99.90;;;;;;5016907;28;20026;-66
2023/01/08 10:53:05;;;;;;;5.53;3.03;;;9.50;99.90;;;;;;5017641;28;20084;-66
2023/01/08 10:55:36;;;;;;;2.90;2.60;;;9.50;99.90;;;;;;5016126;28;20504;-67
2023/01/08 10:58:07;;;;;;;5.70;2.93;;;9.70;99.90;;;;;;5015454;28;20026;-66
2023/01/08 11:00:34;;;;;;;5.38;3.42;;;9.70;99.90;;;;;;5014980;28;20026;-66
2023/01/08 11:03:05;;;;;;;6.72;2.88;;;9.60;99.90;;;;;;5015205;28;20057;-66
2023/01/08 11:05:37;;;;;;;4.63;2.47;;;9.60;99.90;;;;;;5016403;28;20045;-66
2023/01/08 11:08:14;;;;;;;4.38;2.75;;;9.70;99.90;;;;;;5016166;28;20041;-66
2023/01/08 11:10:39;;;;;;;3.45;2.50;;;9.80;99.90;;;;;;5015517;28;20271;-67
2023/01/08 11:13:07;;;;;;;4.13;2.85;;;9.90;99.90;;;;;;5015419;28;20060;-66
2023/01/08 11:15:39;;;;;;;5.90;3.40;;;9.90;99.90;;;;;;5015409;28;20026;-66
2023/01/08 11:18:13;;;;;;;4.25;2.40;;;10.00;99.90;;;;;;5015429;28;20026;-66
2023/01/08 11:20:40;;;;;;;4.55;2.25;;;10.10;99.90;;;;;;5016495;28;20022;-66
2023/01/08 11:23:19;;;;;;;5.15;2.97;;;10.20;99.90;;;;;;5016364;28;20097;-66
2023/01/08 11:26:07;;;;;;;4.93;2.70;;;10.40;99.90;;;;;;5014386;28;20029;-66
2023/01/08 11:28:51;;;;;;;4.47;2.45;;;10.70;99.90;;;;;;5014545;28;20048;-66
2023/01/08 11:31:24;;;;;;;2.28;1.90;;;11.00;99.90;;;;;;5015773;28;20030;-66
2023/01/08 11:33:57;;;;;;;3.00;2.03;;;11.10;99.90;;;;;;5015830;28;20085;-66
2023/01/08 11:36:29;;;;;;;2.97;2.10;;;11.00;99.90;;;;;;5014601;28;20113;-66
2023/01/08 11:38:54;;;;;;;5.80;2.70;;;10.90;99.90;;;;;;5015715;28;20022;-66
2023/01/08 11:41:39;;;;;;;3.17;2.13;;;10.90;99.90;;;;;;5014092;28;20046;-66
2023/01/08 11:44:25;;;;;;;3.17;2.47;;;10.70;99.90;;;;;;5014504;28;20026;-66
2023/01/08 11:47:04;;;;;;;4.00;1.60;;;10.60;99.90;;;;;;5014237;28;20033;-66
2023/01/08 11:49:55;;;;;;;3.70;2.00;;;10.60;99.90;;;;;;5015725;28;20092;-66
2023/01/08 11:52:36;;;;;;;3.40;1.90;;;10.50;99.90;;;;;;5015157;28;20050;-67
2023/01/08 11:55:04;;;;;;;4.20;2.08;;;10.60;99.90;;;;;;5015497;28;20037;-68
2023/01/08 11:58:00;;;;;;;3.80;2.15;;;10.60;99.90;;;;;;5014088;28;20030;-67
2023/01/08 12:00:34;;;;;;;2.17;1.75;;;10.60;99.90;;;;;;5040828;22;20124;-66
2023/01/08 12:03:03;;;;;;;4.75;2.33;;;10.40;99.90;;;;;;5013844;28;20021;-66
2023/01/08 12:05:50;;;;;;;2.40;1.80;;;10.30;99.90;;;;;;5014024;28;20022;-66
2023/01/08 12:08:19;;;;;;;2.20;1.58;;;10.30;99.90;;;;;;5015533;28;20026;-66
2023/01/08 12:11:05;;;;;;;2.35;1.80;;;10.30;99.90;;;;;;5013566;28;20066;-66
2023/01/08 12:13:37;;;;;;;3.75;2.10;;;10.40;99.90;;;;;;5014831;28;20026;-67
2023/01/08 12:16:37;;;;;;;3.22;2.08;;;10.20;99.90;;;;;;5013576;28;20026;-65
2023/01/08 12:19:32;;;;;;;2.85;2.22;;;10.10;99.90;;;;;;5013470;28;20120;-66
2023/01/08 12:22:16;;;;;;;4.35;2.20;;;10.00;99.90;;;;;;5013305;28;20080;-65
2023/01/08 12:25:00;;;;;;;3.85;2.80;;;10.20;99.90;;;;;;5019945;28;20022;-65
2023/01/08 12:27:54;;;;;;;4.05;2.45;;;10.10;99.90;;;;;;5013284;28;20176;-65
2023/01/08 12:30:58;;;;;;;6.00;2.47;;;9.90;99.90;;;;;;5013117;28;20030;-66
2023/01/08 12:33:36;;;;;;;3.35;2.40;;;10.10;99.90;;;;;;5013357;28;20026;-66
2023/01/08 12:36:08;;;;;;;3.85;2.00;;;10.10;99.90;;;;;;5014371;28;20457;-65
2023/01/08 12:38:42;;;;;;;4.07;1.98;;;10.20;99.90;;;;;;5013198;28;20026;-66
2023/01/08 12:41:18;;;;;;;7.32;1.98;;;10.10;99.90;;;;;;5013672;28;20049;-66
2023/01/08 12:43:59;;;;;;;2.60;1.98;;;10.30;99.90;;;;;;5013021;28;20018;-66
2023/01/08 12:46:29;;;;;;;4.15;2.17;;;10.40;99.90;;;;;;5013693;28;20025;-66
2023/01/08 12:48:55;;;;;;;2.60;2.17;;;10.30;99.90;;;;;;5014426;28;20022;-66
2023/01/08 12:51:33;;;;;;;6.55;2.10;;;10.30;99.90;;;;;;5014381;28;20061;-66
2023/01/08 12:54:23;;;;;;;2.20;1.73;;;10.30;99.90;;;;;;5012839;28;20117;-66
2023/01/08 12:57:01;;;;;;;1.95;1.48;;;10.40;99.90;;;;;;5013948;28;20522;-66
2023/01/08 13:00:16;;;;;;;2.42;1.48;;;10.50;99.90;;;;;;5012670;28;20032;-69
2023/01/08 13:03:03;;;;;;;3.42;1.83;;;10.50;99.90;;;;;;5002556;28;20042;-66